Junction, Texas
Current Conditions -  °F | °C
As of 3:51 PM on Monday 24 Nov 2014 (Local Time) from KJCT Reporting Station
Clear Clear  
Wind Chill: 15°   Ceiling: Unl
Heat Index: 15°   Visibility: 10mi
Dew Point: -7°   Wind: 7mph
Humidity: 21%   Direction: 350°N
Pressure: 30.05"   Gusts: NA
Location:  30.49°N, 99.77°W
Report Text: KJCT 242151Z AUTO 35006KT 10SM CLR 15/M07 A3005 RMK AO2 SLP157 T01501072
Loading
Personal Weather Stations






























Interactive Weather Map New forecast layout! Learn more

10-Day Weather Forecast

Advertisements
Track Severe Weather on mobile